createdAt,value
2018-09-03T00:00:09.144Z,1012.97
2018-09-03T00:01:09.185Z,1012.94
2018-09-03T00:02:09.142Z,1012.95
2018-09-03T00:03:09.190Z,1012.94
2018-09-03T00:04:09.134Z,1012.93
2018-09-03T00:05:09.126Z,1012.92
2018-09-03T00:06:09.117Z,1012.89
2018-09-03T00:07:09.125Z,1012.89
2018-09-03T00:08:09.103Z,1012.90
2018-09-03T00:09:09.087Z,1012.84
2018-09-03T00:10:09.072Z,1012.84
2018-09-03T00:11:09.061Z,1012.82
2018-09-03T00:12:09.078Z,1012.81
2018-09-03T00:13:09.041Z,1012.77
2018-09-03T00:14:09.032Z,1012.77
2018-09-03T00:15:09.016Z,1012.75
2018-09-03T00:16:09.002Z,1012.75
2018-09-03T00:17:09.018Z,1012.72
2018-09-03T00:18:08.988Z,1012.71
2018-09-03T00:19:08.944Z,1012.63
2018-09-03T00:20:08.964Z,1012.64
2018-09-03T00:21:08.910Z,1012.59
2018-09-03T00:22:08.982Z,1012.58
2018-09-03T00:23:08.931Z,1012.63
2018-09-03T00:24:08.876Z,1012.58
2018-09-03T00:25:08.912Z,1012.58
2018-09-03T00:26:08.901Z,1012.56
2018-09-03T00:27:08.904Z,1012.53
2018-09-03T00:28:08.872Z,1012.48
2018-09-03T00:29:08.865Z,1012.46
2018-09-03T00:30:08.812Z,1012.43
2018-09-03T00:31:08.795Z,1012.42
2018-09-03T00:32:08.861Z,1012.41
2018-09-03T00:33:08.825Z,1012.39
2018-09-03T00:34:08.808Z,1012.37
2018-09-03T00:35:08.798Z,1012.38
2018-09-03T00:36:08.796Z,1012.39
2018-09-03T00:37:08.821Z,1012.38
2018-09-03T00:38:08.732Z,1012.34
2018-09-03T00:39:08.821Z,1012.37
2018-09-03T00:40:08.747Z,1012.37
2018-09-03T00:41:08.735Z,1012.31
2018-09-03T00:42:08.680Z,1012.30
2018-09-03T00:43:08.896Z,1012.30
2018-09-03T00:44:08.714Z,1012.31
2018-09-03T00:45:08.687Z,1012.28
2018-09-03T00:46:08.683Z,1012.29
2018-09-03T00:47:08.665Z,1012.27
2018-09-03T00:48:08.687Z,1012.28
2018-09-03T00:49:08.649Z,1012.22
2018-09-03T00:50:08.641Z,1012.27
2018-09-03T00:51:08.625Z,1012.22
2018-09-03T00:52:08.741Z,1012.22
2018-09-03T00:53:08.628Z,1012.21
2018-09-03T00:54:08.570Z,1012.20
2018-09-03T00:55:08.585Z,1012.19
2018-09-03T00:56:08.636Z,1012.21
2018-09-03T00:57:08.521Z,1012.21
2018-09-03T00:58:08.595Z,1012.19
2018-09-03T00:59:08.546Z,1012.26
2018-09-03T01:00:08.536Z,1012.29
2018-09-03T01:01:08.522Z,1012.29
2018-09-03T01:02:08.465Z,1012.27
2018-09-03T01:03:08.513Z,1012.26
2018-09-03T01:04:08.483Z,1012.25
2018-09-03T01:05:08.478Z,1012.20
2018-09-03T01:06:08.462Z,1012.19
2018-09-03T01:07:08.452Z,1012.17
2018-09-03T01:08:08.452Z,1012.20
2018-09-03T01:09:08.432Z,1012.17
2018-09-03T01:10:08.422Z,1012.18
2018-09-03T01:11:08.418Z,1012.15
2018-09-03T01:12:08.397Z,1012.17
2018-09-03T01:13:08.405Z,1012.18
2018-09-03T01:14:08.388Z,1012.16
2018-09-03T01:15:08.368Z,1012.19
2018-09-03T01:16:08.324Z,1012.22
2018-09-03T01:17:08.298Z,1012.23
2018-09-03T01:18:08.360Z,1012.24
2018-09-03T01:19:08.324Z,1012.24
2018-09-03T01:20:08.307Z,1012.20
2018-09-03T01:21:08.299Z,1012.22
2018-09-03T01:22:08.296Z,1012.21
2018-09-03T01:23:08.307Z,1012.20
2018-09-03T01:24:08.280Z,1012.23
2018-09-03T01:25:08.256Z,1012.27
2018-09-03T01:26:08.256Z,1012.28
2018-09-03T01:27:08.231Z,1012.20
2018-09-03T01:28:08.264Z,1012.22
2018-09-03T01:29:08.217Z,1012.19
2018-09-03T01:30:08.197Z,1012.16
2018-09-03T01:31:08.193Z,1012.16
2018-09-03T01:32:08.177Z,1012.20
2018-09-03T01:33:08.212Z,1012.22
2018-09-03T01:34:08.120Z,1012.24
2018-09-03T01:35:08.152Z,1012.29
2018-09-03T01:36:08.139Z,1012.24
2018-09-03T01:37:08.127Z,1012.25
2018-09-03T01:38:08.244Z,1012.27
2018-09-03T01:39:08.107Z,1012.34
2018-09-03T01:40:08.091Z,1012.31
2018-09-03T01:41:08.100Z,1012.32
2018-09-03T01:42:08.075Z,1012.33
2018-09-03T01:43:08.094Z,1012.34
2018-09-03T01:44:08.053Z,1012.37
2018-09-03T01:45:08.063Z,1012.39
2018-09-03T01:46:08.024Z,1012.43
2018-09-03T01:47:08.017Z,1012.50
2018-09-03T01:48:08.006Z,1012.52
2018-09-03T01:49:07.978Z,1012.59
2018-09-03T01:50:07.994Z,1012.62
2018-09-03T01:51:07.944Z,1012.66
2018-09-03T01:52:07.962Z,1012.66
2018-09-03T01:53:07.953Z,1012.69
2018-09-03T01:54:07.963Z,1012.76
2018-09-03T01:55:07.891Z,1012.77
2018-09-03T01:56:07.921Z,1012.78
2018-09-03T01:57:07.862Z,1012.81
2018-09-03T01:58:07.907Z,1012.81
2018-09-03T01:59:08.005Z,1012.81
2018-09-03T02:00:07.882Z,1012.84
2018-09-03T02:01:07.905Z,1012.84
2018-09-03T02:02:07.863Z,1012.86
2018-09-03T02:03:07.811Z,1012.81
2018-09-03T02:04:07.861Z,1012.83
2018-09-03T02:05:07.850Z,1012.76
2018-09-03T02:06:07.808Z,1012.79
2018-09-03T02:07:07.806Z,1012.78
2018-09-03T02:08:07.787Z,1012.74
2018-09-03T02:09:07.803Z,1012.73
2018-09-03T02:10:07.730Z,1012.68
2018-09-03T02:11:07.756Z,1012.67
2018-09-03T02:12:07.744Z,1012.64
2018-09-03T02:13:07.776Z,1012.70
2018-09-03T02:14:07.707Z,1012.63
2018-09-03T02:15:07.710Z,1012.62
2018-09-03T02:16:07.714Z,1012.53
2018-09-03T02:17:07.668Z,1012.55
2018-09-03T02:18:07.683Z,1012.54
2018-09-03T02:19:07.646Z,1012.53
2018-09-03T02:20:07.657Z,1012.57
2018-09-03T02:21:07.650Z,1012.53
2018-09-03T02:22:07.632Z,1012.56
2018-09-03T02:23:07.634Z,1012.52
2018-09-03T02:24:07.634Z,1012.50
2018-09-03T02:25:07.608Z,1012.55
2018-09-03T02:26:07.593Z,1012.55
2018-09-03T02:27:07.545Z,1012.55
2018-09-03T02:28:07.568Z,1012.57
2018-09-03T02:29:07.603Z,1012.63
2018-09-03T02:30:07.553Z,1012.64
2018-09-03T02:31:07.560Z,1012.62
2018-09-03T02:32:07.527Z,1012.61
2018-09-03T02:33:07.480Z,1012.70
2018-09-03T02:34:07.541Z,1012.73
2018-09-03T02:35:07.501Z,1012.67
2018-09-03T02:36:07.492Z,1012.64
2018-09-03T02:37:07.428Z,1012.61
2018-09-03T02:38:07.460Z,1012.62
2018-09-03T02:39:07.476Z,1012.61
2018-09-03T02:40:07.396Z,1012.55
2018-09-03T02:41:07.383Z,1012.49
2018-09-03T02:42:07.414Z,1012.46
2018-09-03T02:43:07.419Z,1012.45
2018-09-03T02:44:07.410Z,1012.42
2018-09-03T02:45:07.384Z,1012.41
2018-09-03T02:46:07.343Z,1012.37
2018-09-03T02:47:07.366Z,1012.35
2018-09-03T02:48:07.314Z,1012.30
2018-09-03T02:49:07.372Z,1012.29
2018-09-03T02:50:07.337Z,1012.27
2018-09-03T02:51:07.325Z,1012.28
2018-09-03T02:52:07.308Z,1012.30
2018-09-03T02:53:07.306Z,1012.34
2018-09-03T02:54:07.440Z,1012.35
2018-09-03T02:55:07.274Z,1012.33
2018-09-03T02:56:07.271Z,1012.33
2018-09-03T02:57:07.262Z,1012.37
2018-09-03T02:58:07.197Z,1012.38
2018-09-03T02:59:07.259Z,1012.41
2018-09-03T03:00:07.219Z,1012.36
2018-09-03T03:01:07.226Z,1012.36
2018-09-03T03:02:07.223Z,1012.38
2018-09-03T03:03:07.200Z,1012.40
2018-09-03T03:04:07.275Z,1012.39
2018-09-03T03:05:07.168Z,1012.41
2018-09-03T03:06:07.158Z,1012.40
2018-09-03T03:07:07.145Z,1012.40
2018-09-03T03:08:07.180Z,1012.41
2018-09-03T03:09:07.105Z,1012.39
2018-09-03T03:10:07.135Z,1012.43
2018-09-03T03:11:07.106Z,1012.39
2018-09-03T03:12:07.087Z,1012.38
2018-09-03T03:13:07.078Z,1012.39
2018-09-03T03:14:07.065Z,1012.33
2018-09-03T03:15:07.010Z,1012.33
2018-09-03T03:16:07.047Z,1012.29
2018-09-03T03:17:07.036Z,1012.26
2018-09-03T03:18:07.029Z,1012.25
2018-09-03T03:19:07.039Z,1012.24
2018-09-03T03:20:07.019Z,1012.23
2018-09-03T03:21:06.988Z,1012.21
2018-09-03T03:22:06.940Z,1012.17
2018-09-03T03:23:06.970Z,1012.14
2018-09-03T03:24:06.952Z,1012.16
2018-09-03T03:25:06.967Z,1012.16
2018-09-03T03:26:06.932Z,1012.21
2018-09-03T03:27:06.924Z,1012.18
2018-09-03T03:28:06.911Z,1012.18
2018-09-03T03:29:06.912Z,1012.16
2018-09-03T03:30:07.041Z,1012.20
2018-09-03T03:31:06.889Z,1012.15
2018-09-03T03:32:06.827Z,1012.14
2018-09-03T03:33:06.815Z,1012.08
2018-09-03T03:34:06.854Z,1012.13
2018-09-03T03:35:06.878Z,1012.06
2018-09-03T03:36:06.842Z,1012.06
2018-09-03T03:37:06.812Z,1012.04
2018-09-03T03:38:06.810Z,1011.99
2018-09-03T03:39:06.796Z,1011.99
2018-09-03T03:40:06.806Z,1011.99
2018-09-03T03:41:06.771Z,1011.94
2018-09-03T03:42:06.779Z,1011.93
2018-09-03T03:43:06.747Z,1011.87
2018-09-03T03:44:06.735Z,1011.86
2018-09-03T03:45:06.705Z,1011.86
2018-09-03T03:46:06.714Z,1011.85
2018-09-03T03:47:06.711Z,1011.85
2018-09-03T03:48:06.707Z,1011.84
2018-09-03T03:49:06.711Z,1011.83
2018-09-03T03:50:06.725Z,1011.77
2018-09-03T03:51:06.619Z,1011.81
2018-09-03T03:52:06.650Z,1011.80
2018-09-03T03:53:06.641Z,1011.80
2018-09-03T03:54:06.637Z,1011.80
2018-09-03T03:55:06.755Z,1011.80
2018-09-03T03:56:06.607Z,1011.80
2018-09-03T03:57:06.566Z,1011.81
2018-09-03T03:58:06.584Z,1011.82
2018-09-03T03:59:06.578Z,1011.79
2018-09-03T04:00:06.591Z,1011.82
2018-09-03T04:01:06.534Z,1011.79
2018-09-03T04:02:06.496Z,1011.86
2018-09-03T04:03:06.597Z,1011.85
2018-09-03T04:04:06.518Z,1011.86
2018-09-03T04:05:06.511Z,1011.84
2018-09-03T04:06:06.498Z,1011.85
2018-09-03T04:07:06.472Z,1011.87
2018-09-03T04:08:06.477Z,1011.87
2018-09-03T04:09:06.470Z,1011.88
2018-09-03T04:10:06.472Z,1011.88
2018-09-03T04:11:06.451Z,1011.86
2018-09-03T04:12:06.439Z,1011.85
2018-09-03T04:13:06.420Z,1011.86
2018-09-03T04:14:06.413Z,1011.87
2018-09-03T04:15:06.413Z,1011.83
2018-09-03T04:16:06.422Z,1011.79
2018-09-03T04:17:06.380Z,1011.79
2018-09-03T04:18:06.374Z,1011.76
2018-09-03T04:19:06.368Z,1011.74
2018-09-03T04:20:06.371Z,1011.71
2018-09-03T04:21:06.342Z,1011.68
2018-09-03T04:22:06.288Z,1011.67
2018-09-03T04:23:06.379Z,1011.65
2018-09-03T04:24:06.296Z,1011.58
2018-09-03T04:25:06.310Z,1011.55
2018-09-03T04:26:06.236Z,1011.55
2018-09-03T04:27:06.270Z,1011.57
2018-09-03T04:28:06.266Z,1011.60
2018-09-03T04:29:06.204Z,1011.64
2018-09-03T04:30:06.273Z,1011.68
2018-09-03T04:31:06.222Z,1011.73
2018-09-03T04:32:06.208Z,1011.72
2018-09-03T04:33:06.199Z,1011.69
2018-09-03T04:34:06.255Z,1011.67
2018-09-03T04:35:06.181Z,1011.66
2018-09-03T04:36:06.193Z,1011.69
2018-09-03T04:37:06.157Z,1011.66
2018-09-03T04:38:06.145Z,1011.67
2018-09-03T04:39:06.101Z,1011.67
2018-09-03T04:40:06.141Z,1011.59
2018-09-03T04:41:06.105Z,1011.64
2018-09-03T04:42:06.099Z,1011.65
2018-09-03T04:43:06.096Z,1011.62
2018-09-03T04:44:06.079Z,1011.68
2018-09-03T04:45:06.069Z,1011.67
2018-09-03T04:46:06.098Z,1011.68
2018-09-03T04:47:06.050Z,1011.68
2018-09-03T04:48:06.103Z,1011.70
2018-09-03T04:49:06.034Z,1011.69
2018-09-03T04:50:06.053Z,1011.67
2018-09-03T04:51:06.027Z,1011.66
2018-09-03T04:52:05.951Z,1011.66
2018-09-03T04:53:05.980Z,1011.71
2018-09-03T04:54:06.026Z,1011.72
2018-09-03T04:55:06.063Z,1011.74
2018-09-03T04:56:06.111Z,1011.76
2018-09-03T04:57:05.938Z,1011.75
2018-09-03T04:58:05.926Z,1011.74
2018-09-03T04:59:05.917Z,1011.74
2018-09-03T05:00:05.888Z,1011.73
2018-09-03T05:01:05.878Z,1011.73
2018-09-03T05:02:05.893Z,1011.68
2018-09-03T05:03:05.827Z,1011.69
2018-09-03T05:04:05.875Z,1011.62
2018-09-03T05:05:05.856Z,1011.60
2018-09-03T05:06:05.930Z,1011.59
2018-09-03T05:07:05.794Z,1011.64
2018-09-03T05:08:05.821Z,1011.63
2018-09-03T05:09:05.813Z,1011.60
2018-09-03T05:10:05.827Z,1011.63
2018-09-03T05:11:05.814Z,1011.62
2018-09-03T05:12:05.775Z,1011.59
2018-09-03T05:13:05.762Z,1011.61
2018-09-03T05:14:05.758Z,1011.61
2018-09-03T05:15:05.759Z,1011.65
2018-09-03T05:16:05.771Z,1011.64
2018-09-03T05:17:05.722Z,1011.68
2018-09-03T05:18:05.708Z,1011.71
2018-09-03T05:19:05.695Z,1011.68
2018-09-03T05:20:05.688Z,1011.76
2018-09-03T05:21:05.700Z,1011.74
2018-09-03T05:22:05.676Z,1011.75
2018-09-03T05:23:05.607Z,1011.78
2018-09-03T05:24:05.639Z,1011.78
2018-09-03T05:25:05.635Z,1011.74
2018-09-03T05:26:05.651Z,1011.74
2018-09-03T05:27:05.611Z,1011.74
2018-09-03T05:28:05.594Z,1011.71
2018-09-03T05:29:05.586Z,1011.73
2018-09-03T05:30:05.541Z,1011.70
2018-09-03T05:31:05.607Z,1011.73
2018-09-03T05:32:05.559Z,1011.72
2018-09-03T05:33:05.547Z,1011.74
2018-09-03T05:34:05.532Z,1011.74
2018-09-03T05:35:05.474Z,1011.68
2018-09-03T05:36:05.550Z,1011.66
2018-09-03T05:37:05.501Z,1011.61
2018-09-03T05:38:05.488Z,1011.57
2018-09-03T05:39:05.477Z,1011.53
2018-09-03T05:40:05.468Z,1011.53
2018-09-03T05:41:05.475Z,1011.49
2018-09-03T05:42:05.446Z,1011.47
2018-09-03T05:43:05.550Z,1011.47
2018-09-03T05:44:05.501Z,1011.48
2018-09-03T05:45:05.408Z,1011.48
2018-09-03T05:46:05.419Z,1011.47
2018-09-03T05:47:05.387Z,1011.49
2018-09-03T05:48:05.382Z,1011.56
2018-09-03T05:49:05.332Z,1011.61
2018-09-03T05:50:05.382Z,1011.66
2018-09-03T05:51:05.377Z,1011.67
2018-09-03T05:52:05.348Z,1011.67
2018-09-03T05:53:05.303Z,1011.70
2018-09-03T05:54:05.372Z,1011.67
2018-09-03T05:55:05.302Z,1011.66
2018-09-03T05:56:05.318Z,1011.64
2018-09-03T05:57:05.284Z,1011.60
2018-09-03T05:58:05.267Z,1011.64
2018-09-03T05:59:05.330Z,1011.64
2018-09-03T06:00:05.207Z,1011.63
2018-09-03T06:01:05.257Z,1011.63
2018-09-03T06:02:05.232Z,1011.61
2018-09-03T06:03:05.253Z,1011.65
2018-09-03T06:04:05.209Z,1011.68
2018-09-03T06:05:05.211Z,1011.71
2018-09-03T06:06:05.183Z,1011.66
2018-09-03T06:07:05.190Z,1011.67
2018-09-03T06:08:05.157Z,1011.60
2018-09-03T06:09:05.193Z,1011.61
2018-09-03T06:10:05.139Z,1011.62
2018-09-03T06:11:05.159Z,1011.58
2018-09-03T06:12:05.140Z,1011.61
2018-09-03T06:13:05.134Z,1011.62
2018-09-03T06:14:05.093Z,1011.67
2018-09-03T06:15:05.111Z,1011.62
2018-09-03T06:16:05.081Z,1011.64
2018-09-03T06:17:05.086Z,1011.60
2018-09-03T06:18:05.075Z,1011.56
2018-09-03T06:19:05.039Z,1011.53
2018-09-03T06:20:05.035Z,1011.55
2018-09-03T06:21:05.018Z,1011.48
2018-09-03T06:22:05.049Z,1011.48
2018-09-03T06:23:05.006Z,1011.49
2018-09-03T06:24:04.994Z,1011.51
2018-09-03T06:25:05.012Z,1011.47
2018-09-03T06:26:04.978Z,1011.52
2018-09-03T06:27:04.957Z,1011.50
2018-09-03T06:28:04.946Z,1011.55
2018-09-03T06:29:04.938Z,1011.45
2018-09-03T06:30:04.932Z,1011.46
2018-09-03T06:31:04.951Z,1011.43
2018-09-03T06:32:04.864Z,1011.47
2018-09-03T06:33:04.899Z,1011.49
2018-09-03T06:34:04.881Z,1011.49
2018-09-03T06:35:04.868Z,1011.52
2018-09-03T06:36:04.897Z,1011.50
2018-09-03T06:37:04.846Z,1011.50
2018-09-03T06:38:04.845Z,1011.48
2018-09-03T06:39:04.850Z,1011.49
2018-09-03T06:40:04.899Z,1011.52
2018-09-03T06:41:04.926Z,1011.51
2018-09-03T06:42:05.789Z,1011.52
2018-09-03T06:43:04.794Z,1011.54
2018-09-03T06:44:04.785Z,1011.53
2018-09-03T06:45:04.768Z,1011.57
2018-09-03T06:46:04.923Z,1011.58
2018-09-03T06:47:04.745Z,1011.56
2018-09-03T06:48:04.730Z,1011.60
2018-09-03T06:49:04.726Z,1011.57
2018-09-03T06:50:04.718Z,1011.54
2018-09-03T06:51:04.723Z,1011.55
2018-09-03T06:52:04.740Z,1011.52
2018-09-03T06:53:04.679Z,1011.52
2018-09-03T06:54:04.690Z,1011.45
2018-09-03T06:55:04.669Z,1011.49
2018-09-03T06:56:04.825Z,1011.50
2018-09-03T06:57:04.641Z,1011.52
2018-09-03T06:58:04.641Z,1011.46
2018-09-03T06:59:04.654Z,1011.47
2018-09-03T07:00:04.613Z,1011.49
2018-09-03T07:01:04.602Z,1011.51
2018-09-03T07:02:04.588Z,1011.50
2018-09-03T07:03:04.599Z,1011.49
2018-09-03T07:04:04.575Z,1011.49
2018-09-03T07:05:04.556Z,1011.45
2018-09-03T07:06:04.541Z,1011.46
2018-09-03T07:07:04.537Z,1011.45
2018-09-03T07:08:04.715Z,1011.48
2018-09-03T07:09:04.473Z,1011.45
2018-09-03T07:10:04.541Z,1011.44
2018-09-03T07:11:04.488Z,1011.46
2018-09-03T07:12:04.536Z,1011.47
2018-09-03T07:13:04.472Z,1011.47
2018-09-03T07:14:04.459Z,1011.49
2018-09-03T07:15:11.484Z,1011.48
2018-09-03T07:16:04.429Z,1011.47
2018-09-03T07:17:04.437Z,1011.46
2018-09-03T07:18:04.408Z,1011.51
2018-09-03T07:19:04.414Z,1011.49
2018-09-03T07:20:04.391Z,1011.47
2018-09-03T07:21:04.381Z,1011.45
2018-09-03T07:22:04.357Z,1011.45
2018-09-03T07:23:04.368Z,1011.46
2018-09-03T07:24:04.385Z,1011.49
2018-09-03T07:25:04.339Z,1011.48
2018-09-03T07:26:04.337Z,1011.47
2018-09-03T07:27:04.347Z,1011.45
2018-09-03T07:28:04.318Z,1011.41
2018-09-03T07:29:04.296Z,1011.33
2018-09-03T07:30:04.279Z,1011.34
2018-09-03T07:31:04.281Z,1011.33
2018-09-03T07:32:04.381Z,1011.30
2018-09-03T07:33:04.247Z,1011.31
2018-09-03T07:34:04.245Z,1011.35
2018-09-03T07:35:04.256Z,1011.37
2018-09-03T07:36:04.224Z,1011.39
2018-09-03T07:37:04.232Z,1011.47
2018-09-03T07:38:04.214Z,1011.46
2018-09-03T07:39:04.182Z,1011.44
2018-09-03T07:40:04.790Z,1011.45
2018-09-03T07:41:04.161Z,1011.45
2018-09-03T07:42:04.197Z,1011.43
2018-09-03T07:43:04.148Z,1011.42
2018-09-03T07:44:04.115Z,1011.40
2018-09-03T07:45:04.081Z,1011.40
2018-09-03T07:46:04.125Z,1011.38
2018-09-03T07:47:04.244Z,1011.40
2018-09-03T07:48:04.088Z,1011.40
2018-09-03T07:49:04.134Z,1011.40
2018-09-03T07:50:04.065Z,1011.45
2018-09-03T07:51:04.139Z,1011.39
2018-09-03T07:52:04.064Z,1011.37
2018-09-03T07:53:04.026Z,1011.36
2018-09-03T07:54:04.018Z,1011.34
2018-09-03T07:55:04.017Z,1011.25
2018-09-03T07:56:04.008Z,1011.21
2018-09-03T07:57:04.031Z,1011.19
2018-09-03T07:58:03.972Z,1011.15
2018-09-03T07:59:03.918Z,1011.16
2018-09-03T08:00:03.966Z,1011.19
2018-09-03T08:01:04.070Z,1011.23
2018-09-03T08:02:03.950Z,1011.26
2018-09-03T08:03:03.878Z,1011.25
2018-09-03T08:04:03.903Z,1011.31
2018-09-03T08:05:03.863Z,1011.24
2018-09-03T08:06:03.894Z,1011.28
2018-09-03T08:07:03.898Z,1011.32
2018-09-03T08:08:03.898Z,1011.32
2018-09-03T08:09:03.871Z,1011.38
2018-09-03T08:10:03.854Z,1011.32
2018-09-03T08:11:03.854Z,1011.37
2018-09-03T08:12:03.855Z,1011.39
2018-09-03T08:13:03.855Z,1011.38
2018-09-03T08:14:03.906Z,1011.32
2018-09-03T08:15:03.790Z,1011.33
2018-09-03T08:16:03.784Z,1011.32
2018-09-03T08:17:03.773Z,1011.31
2018-09-03T08:18:03.847Z,1011.34
2018-09-03T08:19:03.749Z,1011.30
2018-09-03T08:20:03.826Z,1011.33
2018-09-03T08:21:03.728Z,1011.31
2018-09-03T08:22:03.712Z,1011.30
2018-09-03T08:23:03.732Z,1011.34
2018-09-03T08:24:03.703Z,1011.29
2018-09-03T08:25:03.697Z,1011.40
2018-09-03T08:26:03.677Z,1011.41
2018-09-03T08:27:03.658Z,1011.45
2018-09-03T08:28:04.076Z,1011.44
2018-09-03T08:29:03.640Z,1011.42
2018-09-03T08:30:03.633Z,1011.44
2018-09-03T08:31:03.618Z,1011.44
2018-09-03T08:32:03.618Z,1011.44
2018-09-03T08:33:03.626Z,1011.44
2018-09-03T08:34:03.588Z,1011.43
2018-09-03T08:35:03.583Z,1011.40
2018-09-03T08:36:03.562Z,1011.37
2018-09-03T08:37:03.562Z,1011.39
2018-09-03T08:38:03.575Z,1011.39
2018-09-03T08:39:03.542Z,1011.38
2018-09-03T08:40:03.589Z,1011.34
2018-09-03T08:41:03.537Z,1011.34
2018-09-03T08:42:03.734Z,1011.35
2018-09-03T08:43:03.516Z,1011.35
2018-09-03T08:44:03.493Z,1011.28
2018-09-03T08:45:03.449Z,1011.28
2018-09-03T08:46:03.463Z,1011.29
2018-09-03T08:47:03.420Z,1011.31
2018-09-03T08:48:03.559Z,1011.30
2018-09-03T08:49:03.431Z,1011.34
2018-09-03T08:50:03.425Z,1011.28
2018-09-03T08:51:03.436Z,1011.24
2018-09-03T08:52:03.353Z,1011.24
2018-09-03T08:53:03.473Z,1011.27
2018-09-03T08:54:03.421Z,1011.27
2018-09-03T08:55:03.318Z,1011.27
2018-09-03T08:56:03.351Z,1011.29
2018-09-03T08:57:03.343Z,1011.28
2018-09-03T08:58:03.519Z,1011.30
2018-09-03T08:59:03.319Z,1011.26
2018-09-03T09:00:03.316Z,1011.29
2018-09-03T09:01:03.293Z,1011.29
2018-09-03T09:02:03.300Z,1011.37
2018-09-03T09:03:03.295Z,1011.37
2018-09-03T09:04:03.276Z,1011.38
2018-09-03T09:05:03.261Z,1011.34
2018-09-03T09:06:03.246Z,1011.39
2018-09-03T09:07:03.235Z,1011.38
2018-09-03T09:08:03.258Z,1011.33
2018-09-03T09:09:03.215Z,1011.39
2018-09-03T09:10:03.199Z,1011.43
2018-09-03T09:11:03.189Z,1011.45
2018-09-03T09:12:03.199Z,1011.42
2018-09-03T09:13:03.198Z,1011.42
2018-09-03T09:14:03.166Z,1011.42
2018-09-03T09:15:03.151Z,1011.43
2018-09-03T09:16:03.136Z,1011.41
2018-09-03T09:17:03.129Z,1011.41
2018-09-03T09:18:03.179Z,1011.41
2018-09-03T09:19:03.110Z,1011.38
2018-09-03T09:20:03.097Z,1011.36
2018-09-03T09:21:03.097Z,1011.34
2018-09-03T09:22:03.076Z,1011.32
2018-09-03T09:23:03.101Z,1011.32
2018-09-03T09:24:03.056Z,1011.30
2018-09-03T09:25:03.128Z,1011.26
2018-09-03T09:26:03.033Z,1011.31
2018-09-03T09:27:03.023Z,1011.30
2018-09-03T09:28:03.011Z,1011.23
2018-09-03T09:29:03.028Z,1011.23
2018-09-03T09:30:02.950Z,1011.17
2018-09-03T09:31:02.982Z,1011.22
2018-09-03T09:32:03.037Z,1011.19
2018-09-03T09:33:02.955Z,1011.15
2018-09-03T09:34:03.001Z,1011.20
2018-09-03T09:35:02.902Z,1011.13
2018-09-03T09:36:02.945Z,1011.20
2018-09-03T09:37:02.956Z,1011.14
2018-09-03T09:38:02.917Z,1011.14
2018-09-03T09:39:02.926Z,1011.16
2018-09-03T09:40:02.884Z,1011.16
2018-09-03T09:41:02.880Z,1011.19
2018-09-03T09:42:02.863Z,1011.13
2018-09-03T09:43:02.909Z,1011.13
2018-09-03T09:44:02.870Z,1011.16
2018-09-03T09:45:02.801Z,1011.08
2018-09-03T09:46:02.773Z,1011.10
2018-09-03T09:47:02.887Z,1011.11
2018-09-03T09:48:02.813Z,1011.10
2018-09-03T09:49:02.831Z,1011.12
2018-09-03T09:50:02.810Z,1011.06
2018-09-03T09:51:02.721Z,1011.03
2018-09-03T09:52:02.765Z,1011.04
2018-09-03T09:53:02.752Z,1011.03
2018-09-03T09:54:02.762Z,1010.97
2018-09-03T09:55:02.732Z,1010.95
2018-09-03T09:56:02.716Z,1011.01
2018-09-03T09:57:02.827Z,1010.96
2018-09-03T09:58:02.695Z,1010.95
2018-09-03T09:59:02.713Z,1010.98
2018-09-03T10:00:02.674Z,1010.90
2018-09-03T10:01:02.660Z,1010.91
2018-09-03T10:02:02.645Z,1010.91
2018-09-03T10:03:02.652Z,1010.90
2018-09-03T10:04:02.702Z,1010.91
2018-09-03T10:05:02.617Z,1010.98
2018-09-03T10:06:02.686Z,1010.99
2018-09-03T10:07:02.604Z,1010.97
2018-09-03T10:08:02.635Z,1011.00
2018-09-03T10:09:02.664Z,1011.03
2018-09-03T10:10:02.572Z,1011.01
2018-09-03T10:11:02.570Z,1010.97
2018-09-03T10:12:02.510Z,1010.95
2018-09-03T10:13:02.558Z,1010.97
2018-09-03T10:14:02.542Z,1010.93
2018-09-03T10:15:02.518Z,1010.93
2018-09-03T10:16:02.458Z,1010.90
2018-09-03T10:17:02.487Z,1010.93
2018-09-03T10:18:02.484Z,1010.88
2018-09-03T10:19:02.494Z,1010.85
2018-09-03T10:20:02.504Z,1010.83
2018-09-03T10:21:02.498Z,1010.79
2018-09-03T10:22:02.558Z,1010.78
2018-09-03T10:23:02.425Z,1010.79
2018-09-03T10:24:02.476Z,1010.78
2018-09-03T10:25:02.408Z,1010.79
2018-09-03T10:26:02.400Z,1010.76
2018-09-03T10:27:02.389Z,1010.72
2018-09-03T10:28:02.372Z,1010.70
2018-09-03T10:29:02.385Z,1010.68
2018-09-03T10:30:02.350Z,1010.67
2018-09-03T10:31:02.342Z,1010.65
2018-09-03T10:32:02.360Z,1010.63
2018-09-03T10:33:02.322Z,1010.67
2018-09-03T10:34:02.335Z,1010.57
2018-09-03T10:35:02.303Z,1010.64
2018-09-03T10:36:02.349Z,1010.65
2018-09-03T10:37:02.276Z,1010.69
2018-09-03T10:38:02.378Z,1010.67
2018-09-03T10:39:02.289Z,1010.69
2018-09-03T10:40:02.261Z,1010.67
2018-09-03T10:41:02.252Z,1010.69
2018-09-03T10:42:02.235Z,1010.74
2018-09-03T10:43:02.302Z,1010.77
2018-09-03T10:44:02.192Z,1010.73
2018-09-03T10:45:02.203Z,1010.74
2018-09-03T10:46:02.180Z,1010.67
2018-09-03T10:47:02.232Z,1010.66
2018-09-03T10:48:02.159Z,1010.64
2018-09-03T10:49:02.146Z,1010.64
2018-09-03T10:50:02.261Z,1010.63
2018-09-03T10:51:02.096Z,1010.62
2018-09-03T10:52:02.219Z,1010.64
2018-09-03T10:53:02.066Z,1010.63
2018-09-03T10:54:02.219Z,1010.53
2018-09-03T10:55:02.111Z,1010.55
2018-09-03T10:56:02.098Z,1010.58
2018-09-03T10:57:02.076Z,1010.55
2018-09-03T10:58:02.073Z,1010.56
2018-09-03T10:59:02.053Z,1010.53
2018-09-03T11:00:02.146Z,1010.47
2018-09-03T11:01:02.027Z,1010.49
2018-09-03T11:02:02.034Z,1010.49
2018-09-03T11:03:02.006Z,1010.47
2018-09-03T11:04:02.011Z,1010.48
2018-09-03T11:05:02.006Z,1010.48
2018-09-03T11:06:01.979Z,1010.45
2018-09-03T11:07:01.960Z,1010.46
2018-09-03T11:08:01.957Z,1010.45
2018-09-03T11:09:01.971Z,1010.43
2018-09-03T11:10:01.951Z,1010.47
2018-09-03T11:11:01.919Z,1010.41
2018-09-03T11:12:01.866Z,1010.39
2018-09-03T11:13:01.904Z,1010.39
2018-09-03T11:14:01.883Z,1010.41
2018-09-03T11:15:02.003Z,1010.38
2018-09-03T11:16:01.881Z,1010.31
2018-09-03T11:17:01.823Z,1010.36
2018-09-03T11:18:01.853Z,1010.33
2018-09-03T11:19:01.855Z,1010.28
2018-09-03T11:20:01.917Z,1010.23
2018-09-03T11:21:01.821Z,1010.21
2018-09-03T11:22:01.800Z,1010.22
2018-09-03T11:23:01.794Z,1010.19
2018-09-03T11:24:01.869Z,1010.16
2018-09-03T11:25:01.813Z,1010.15
2018-09-03T11:26:01.786Z,1010.14
2018-09-03T11:27:01.707Z,1010.19
2018-09-03T11:28:01.760Z,1010.18
2018-09-03T11:29:01.738Z,1010.15
2018-09-03T11:30:01.743Z,1010.18
2018-09-03T11:31:01.710Z,1010.11
2018-09-03T11:32:01.697Z,1010.07
2018-09-03T11:33:01.693Z,1010.12
2018-09-03T11:34:01.696Z,1010.03
2018-09-03T11:35:01.706Z,1009.99
2018-09-03T11:36:01.656Z,1010.02
2018-09-03T11:37:01.657Z,1009.99
2018-09-03T11:38:01.639Z,1010.00
2018-09-03T11:39:01.624Z,1010.01
2018-09-03T11:40:01.620Z,1010.01
2018-09-03T11:41:01.616Z,1009.97
2018-09-03T11:42:01.603Z,1009.99
2018-09-03T11:43:01.594Z,1009.98
2018-09-03T11:44:01.568Z,1010.00
2018-09-03T11:45:01.562Z,1010.01
2018-09-03T11:46:01.655Z,1009.99
2018-09-03T11:47:01.683Z,1009.98
2018-09-03T11:48:01.521Z,1009.97
2018-09-03T11:49:01.516Z,1009.95
2018-09-03T11:50:01.512Z,1009.97
2018-09-03T11:51:01.613Z,1009.99
2018-09-03T11:52:01.481Z,1009.97
2018-09-03T11:53:01.452Z,1010.01
2018-09-03T11:54:01.418Z,1010.02
2018-09-03T11:55:01.448Z,1010.00
2018-09-03T11:56:01.531Z,1009.99
2018-09-03T11:57:01.391Z,1009.98
2018-09-03T11:58:01.435Z,1009.99
2018-09-03T11:59:01.404Z,1010.00
2018-09-03T12:00:01.427Z,1009.99
2018-09-03T12:01:01.427Z,1009.98
2018-09-03T12:02:01.405Z,1009.97
2018-09-03T12:03:01.373Z,1010.04
2018-09-03T12:04:01.371Z,1009.99
2018-09-03T12:05:01.357Z,1009.96